Time;durP1;ratioP1;P1;durP2;ratioP2;P2;SDS_P1;SDS_P2;PMS_P1;PMS_P2;Temp;Humidity;BMP_temperature;BMP_pressure;BME280_temperature;BME280_humidity;BME280_pressure;Samples;Min_cycle;Max_cycle;Signal;HPM_P1;HPM_P2
2021/06/20 00:01:00;;;;;;;6.57;5.18;;;;;;;25.02;50.36;99648.56;4334632;33;34379;-86
2021/06/20 00:03:28;;;;;;;6.93;4.97;;;;;;;25.01;50.42;99638.91;4334890;33;33907;-86
2021/06/20 00:06:00;;;;;;;9.77;4.90;;;;;;;25.01;50.55;99645.03;4323181;33;35103;-86
2021/06/20 00:08:28;;;;;;;5.55;4.47;;;;;;;25.00;50.59;99650.47;4323361;33;34577;-86
2021/06/20 00:10:55;;;;;;;6.22;4.97;;;;;;;25.11;50.54;99648.00;4335212;33;34171;-86
2021/06/20 00:13:23;;;;;;;5.18;4.68;;;;;;;25.12;50.59;99644.41;4335223;33;33693;-86
2021/06/20 00:15:51;;;;;;;6.62;5.18;;;;;;;25.11;50.76;99643.53;4335117;33;35114;-86
2021/06/20 00:18:19;;;;;;;5.87;4.78;;;;;;;25.12;51.06;99644.41;4323084;33;35268;-86
2021/06/20 00:20:48;;;;;;;6.25;4.50;;;;;;;25.11;51.17;99648.84;4323042;33;34696;-86
2021/06/20 00:23:16;;;;;;;7.28;4.70;;;;;;;25.03;51.24;99651.13;4335175;33;34347;-86
2021/06/20 00:25:44;;;;;;;6.05;4.87;;;;;;;24.94;51.39;99651.69;4335123;33;34342;-85
2021/06/20 00:28:12;;;;;;;7.10;5.18;;;;;;;24.99;51.26;99649.59;4323080;33;34387;-86
2021/06/20 00:30:40;;;;;;;7.12;4.80;;;;;;;24.89;51.53;99657.28;4334987;33;34329;-86
2021/06/20 00:33:07;;;;;;;8.75;4.80;;;;;;;24.99;51.42;99659.38;4347274;33;33320;-86
2021/06/20 00:35:35;;;;;;;6.55;5.07;;;;;;;24.98;51.52;99660.34;4335101;33;33702;-86
2021/06/20 00:38:03;;;;;;;5.70;4.97;;;;;;;24.88;51.66;99660.91;4322994;33;35378;-86
2021/06/20 00:40:30;;;;;;;6.18;4.87;;;;;;;24.93;51.49;99654.47;4334846;33;34418;-85
2021/06/20 00:42:58;;;;;;;6.03;4.57;;;;;;;24.88;51.62;99666.25;4346787;33;34203;-86
2021/06/20 00:45:26;;;;;;;7.37;5.10;;;;;;;24.80;51.85;99659.66;4335081;33;33899;-86
2021/06/20 00:47:55;;;;;;;5.90;5.05;;;;;;;24.82;51.85;99661.28;4322761;33;33776;-86
2021/06/20 00:50:25;;;;;;;6.60;4.72;;;;;;;24.62;52.39;99645.66;4322919;33;34016;-86
2021/06/20 00:52:58;;;;;;;7.22;4.90;;;;;;;24.79;52.11;99650.81;4334700;33;33441;-86
2021/06/20 00:55:28;;;;;;;6.72;4.85;;;;;;;24.63;52.41;99647.34;4334809;33;34394;-86
2021/06/20 00:58:02;;;;;;;6.07;4.57;;;;;;;24.58;52.69;99645.91;4322575;33;35276;-86
2021/06/20 01:00:31;;;;;;;6.53;4.82;;;;;;;24.43;52.83;99634.41;4348176;33;34253;-86
2021/06/20 01:02:59;;;;;;;5.05;4.55;;;;;;;24.71;52.22;99644.22;4334966;33;33418;-85
2021/06/20 01:05:27;;;;;;;11.18;5.00;;;;;;;24.72;52.17;99636.16;4334682;33;33903;-86
2021/06/20 01:07:55;;;;;;;5.78;4.68;;;;;;;24.60;52.42;99639.56;4322574;33;34335;-85
2021/06/20 01:10:29;;;;;;;5.95;4.35;;;;;;;24.63;52.30;99646.47;4333680;33;35367;-85
2021/06/20 01:12:57;;;;;;;5.07;4.57;;;;;;;24.69;52.32;99641.66;4322728;33;33613;-85
2021/06/20 01:15:25;;;;;;;4.97;4.03;;;;;;;24.64;52.40;99645.53;4335005;33;35084;-86
2021/06/20 01:17:52;;;;;;;7.80;4.40;;;;;;;24.54;52.67;99639.91;4322542;33;35267;-84
2021/06/20 01:20:20;;;;;;;5.25;4.32;;;;;;;24.53;52.62;99637.34;4346867;33;34163;-84
2021/06/20 01:22:50;;;;;;;6.75;4.75;;;;;;;24.56;52.21;99629.19;4322826;33;34170;-85
2021/06/20 01:25:21;;;;;;;6.60;4.40;;;;;;;24.51;52.75;99636.59;4322623;33;33804;-84
2021/06/20 01:27:53;;;;;;;10.23;4.40;;;;;;;24.64;52.46;99634.91;4334746;33;35301;-86
2021/06/20 01:30:25;;;;;;;8.45;4.25;;;;;;;24.55;52.40;99628.34;4346882;33;34637;-85
2021/06/20 01:32:54;;;;;;;8.35;4.00;;;;;;;24.43;52.61;99629.06;4334864;33;33374;-85
2021/06/20 01:35:23;;;;;;;6.43;3.95;;;;;;;24.47;52.11;99625.28;4334615;33;35138;-85
2021/06/20 01:37:52;;;;;;;6.72;4.62;;;;;;;24.59;51.46;99624.53;4334486;33;34755;-85
2021/06/20 01:40:21;;;;;;;6.22;4.03;;;;;;;24.73;51.56;99613.06;4347651;33;33984;-84
2021/06/20 01:42:50;;;;;;;7.20;4.43;;;;;;;24.69;51.73;99609.75;4334621;33;33631;-85
2021/06/20 01:45:19;;;;;;;4.60;4.00;;;;;;;24.75;51.48;99613.81;4334263;33;34602;-85
2021/06/20 01:47:50;;;;;;;6.62;4.72;;;;;;;24.84;50.76;99611.50;4334592;33;33694;-85
2021/06/20 01:50:18;;;;;;;6.85;4.18;;;;;;;24.86;50.85;99608.75;4333957;33;34129;-85
2021/06/20 01:52:46;;;;;;;4.95;3.97;;;;;;;24.91;50.71;99606.69;4334292;33;34519;-85
2021/06/20 01:55:15;;;;;;;7.80;4.30;;;;;;;24.87;50.13;99608.66;4322476;33;33683;-85
2021/06/20 01:57:45;;;;;;;5.07;4.12;;;;;;;24.70;50.58;99605.28;4346537;33;34367;-86
2021/06/20 02:00:15;;;;;;;6.50;3.90;;;;;;;24.89;50.17;99603.22;4346544;33;34145;-86
2021/06/20 02:02:44;;;;;;;4.28;3.50;;;;;;;24.97;49.92;99608.06;4322092;33;33449;-86
2021/06/20 02:05:13;;;;;;;6.80;4.05;;;;;;;24.92;50.26;99607.50;4334058;33;35060;-87
2021/06/20 02:07:42;;;;;;;3.87;3.55;;;;;;;24.95;49.89;99605.53;4333988;33;34346;-86
2021/06/20 02:10:12;;;;;;;7.55;4.15;;;;;;;24.95;50.07;99604.66;4321752;33;33395;-86
2021/06/20 02:12:39;;;;;;;5.53;3.70;;;;;;;24.91;50.04;99609.34;4321968;33;32816;-86
2021/06/20 02:15:09;;;;;;;5.93;3.92;;;;;;;24.94;50.00;99613.63;4321543;33;32918;-86
2021/06/20 02:17:38;;;;;;;4.28;3.87;;;;;;;24.88;50.32;99615.69;4333586;33;34459;-88
2021/06/20 02:20:09;;;;;;;9.50;4.50;;;;;;;24.77;50.56;99618.13;4333499;33;33958;-85
2021/06/20 02:22:40;;;;;;;7.30;4.37;;;;;;;24.79;50.62;99620.72;4347809;33;33953;-86
2021/06/20 02:25:11;;;;;;;5.90;4.45;;;;;;;24.81;50.87;99627.66;4348003;33;34961;-86
2021/06/20 02:27:40;;;;;;;7.05;4.50;;;;;;;24.81;51.14;99630.31;4349261;33;34964;-86
2021/06/20 02:30:09;;;;;;;6.10;4.43;;;;;;;24.66;51.45;99635.66;4335972;33;34368;-86
2021/06/20 02:32:37;;;;;;;4.70;4.25;;;;;;;24.69;51.45;99624.84;4335884;33;33270;-86
2021/06/20 02:35:07;;;;;;;9.13;4.53;;;;;;;24.65;51.63;99628.66;4335799;33;33959;-85
2021/06/20 02:37:35;;;;;;;6.32;4.62;;;;;;;24.49;52.07;99626.03;4335916;33;34751;-86
2021/06/20 02:40:04;;;;;;;5.32;3.97;;;;;;;24.41;52.29;99625.66;4335898;33;34208;-86
2021/06/20 02:42:33;;;;;;;6.37;4.30;;;;;;;24.41;52.41;99622.13;4335650;33;31874;-86
2021/06/20 02:45:01;;;;;;;6.80;4.93;;;;;;;24.18;53.08;99620.81;4347698;33;34778;-86
2021/06/20 02:47:30;;;;;;;8.25;4.35;;;;;;;24.19;53.12;99614.56;4348188;33;34254;-87
2021/06/20 02:49:58;;;;;;;7.70;4.15;;;;;;;24.26;52.83;99615.91;4348875;33;35205;-87
2021/06/20 02:52:26;;;;;;;4.80;4.30;;;;;;;24.34;52.53;99615.47;4335481;33;34963;-86
2021/06/20 02:54:53;;;;;;;5.30;4.80;;;;;;;24.36;52.92;99616.22;4323582;33;33411;-87
2021/06/20 02:57:23;;;;;;;5.95;4.32;;;;;;;24.35;52.87;99606.53;4335754;33;35720;-86
2021/06/20 02:59:52;;;;;;;11.12;4.32;;;;;;;24.23;53.37;99605.47;4335897;33;34443;-87
2021/06/20 03:02:21;;;;;;;7.07;4.97;;;;;;;24.28;53.30;99606.06;4335862;33;34544;-87
2021/06/20 03:04:53;;;;;;;7.40;4.80;;;;;;;24.19;53.54;99609.25;4335535;33;33831;-86
2021/06/20 03:07:21;;;;;;;6.12;4.20;;;;;;;23.94;54.31;99606.25;4323899;33;35159;-86
2021/06/20 03:09:49;;;;;;;7.28;4.87;;;;;;;23.94;54.35;99608.91;4335555;33;34097;-86
2021/06/20 03:12:17;;;;;;;7.15;4.90;;;;;;;23.99;54.13;99613.03;4323480;33;33993;-88
2021/06/20 03:14:46;;;;;;;6.93;4.82;;;;;;;24.11;53.66;99611.50;4335507;33;34165;-87
2021/06/20 03:17:15;;;;;;;6.07;4.93;;;;;;;24.19;53.57;99607.47;4335670;33;34476;-85
2021/06/20 03:19:43;;;;;;;6.25;4.80;;;;;;;24.26;53.20;99613.25;4323254;33;32820;-85
2021/06/20 03:22:12;;;;;;;6.32;4.65;;;;;;;24.22;53.36;99607.25;4335621;33;34962;-85
2021/06/20 03:24:42;;;;;;;9.13;4.60;;;;;;;24.34;53.08;99604.84;4323274;33;33412;-85
2021/06/20 03:27:11;;;;;;;4.90;4.50;;;;;;;24.50;52.73;99614.47;4335698;33;34294;-85
2021/06/20 03:29:39;;;;;;;8.43;4.72;;;;;;;24.64;52.77;99614.50;4335648;33;34700;-85
2021/06/20 03:32:07;;;;;;;6.78;3.80;;;;;;;24.67;53.00;99606.34;4348636;33;33332;-85
2021/06/20 03:34:35;;;;;;;5.22;4.37;;;;;;;24.68;52.51;99610.69;4323068;33;34951;-85
2021/06/20 03:37:04;;;;;;;4.90;4.20;;;;;;;24.74;52.16;99607.69;4335360;33;34355;-85
2021/06/20 03:39:32;;;;;;;11.10;4.22;;;;;;;24.80;51.91;99601.12;4323177;33;34323;-85
2021/06/20 03:42:00;;;;;;;8.07;4.70;;;;;;;24.95;51.69;99602.88;4335369;33;34551;-85
2021/06/20 03:44:28;;;;;;;5.55;3.97;;;;;;;24.99;51.98;99606.19;4347554;33;34581;-85
2021/06/20 03:46:58;;;;;;;4.50;4.10;;;;;;;25.03;52.17;99610.38;4347407;33;34413;-85
2021/06/20 03:49:26;;;;;;;8.25;4.12;;;;;;;25.02;52.28;99608.66;4335354;33;34603;-86
2021/06/20 03:51:54;;;;;;;9.50;4.37;;;;;;;24.96;52.17;99617.84;4335220;33;33255;-86
2021/06/20 03:54:24;;;;;;;7.18;4.18;;;;;;;25.08;52.08;99621.59;4335523;33;34566;-86
2021/06/20 03:56:54;;;;;;;5.05;4.07;;;;;;;24.99;52.43;99619.47;4347458;33;34428;-86
2021/06/20 03:59:24;;;;;;;5.18;4.62;;;;;;;24.98;52.45;99625.78;4335337;33;33903;-85
2021/06/20 04:01:52;;;;;;;11.30;5.07;;;;;;;25.00;52.22;99615.88;4335230;33;34643;-85
2021/06/20 04:04:21;;;;;;;5.82;4.78;;;;;;;25.04;52.23;99622.72;4335180;33;34488;-85
2021/06/20 04:06:49;;;;;;;9.23;4.43;;;;;;;25.15;51.97;99622.91;4335172;33;34327;-85
2021/06/20 04:09:17;;;;;;;6.53;4.40;;;;;;;25.23;52.15;99623.28;4322916;33;33499;-86
2021/06/20 04:11:47;;;;;;;9.63;4.55;;;;;;;25.20;51.62;99623.50;4348578;33;33620;-85
2021/06/20 04:14:15;;;;;;;5.68;4.60;;;;;;;25.24;51.02;99617.03;4335187;33;34830;-85
2021/06/20 04:16:43;;;;;;;4.97;4.28;;;;;;;25.29;50.60;99622.91;4322993;33;33078;-85
2021/06/20 04:19:11;;;;;;;6.07;4.40;;;;;;;25.36;50.27;99621.56;4347186;33;33859;-85
2021/06/20 04:21:39;;;;;;;7.53;3.75;;;;;;;25.40;50.00;99628.41;4335136;33;33651;-85
2021/06/20 04:24:07;;;;;;;5.18;3.72;;;;;;;25.44;49.54;99628.13;4335044;33;33458;-86
2021/06/20 04:26:35;;;;;;;9.18;3.97;;;;;;;25.42;49.27;99629.16;4334911;33;34479;-86
2021/06/20 04:29:03;;;;;;;5.40;3.92;;;;;;;25.55;49.21;99616.81;4335048;33;34722;-85
2021/06/20 04:31:31;;;;;;;5.35;4.15;;;;;;;25.55;48.87;99614.16;4322646;33;33201;-86
2021/06/20 04:33:59;;;;;;;5.07;3.42;;;;;;;25.54;49.02;99618.63;4334773;33;33730;-85
2021/06/20 04:36:26;;;;;;;5.57;3.97;;;;;;;25.59;48.76;99613.00;4334444;33;34515;-86
2021/06/20 04:38:54;;;;;;;5.47;3.75;;;;;;;25.60;48.70;99609.41;4347032;33;34998;-85
2021/06/20 04:41:23;;;;;;;7.35;4.12;;;;;;;25.71;48.46;99625.53;4334791;33;32963;-86
2021/06/20 04:46:37;;;;;;;4.95;3.95;;;;;;;25.82;48.16;99620.34;4334025;33;35816;-86
2021/06/20 04:49:09;;;;;;;4.20;3.70;;;;;;;25.77;48.22;99625.13;4322743;33;33387;-85
2021/06/20 04:51:40;;;;;;;5.62;3.92;;;;;;;25.99;47.90;99624.56;4334777;33;33290;-86
2021/06/20 04:54:10;;;;;;;7.07;3.53;;;;;;;25.87;48.24;99628.03;4322796;33;34817;-86
2021/06/20 04:56:38;;;;;;;5.68;4.22;;;;;;;25.89;48.37;99632.31;4334873;33;34511;-86
2021/06/20 04:59:06;;;;;;;4.10;3.50;;;;;;;25.88;48.01;99635.09;4334587;33;34322;-86
2021/06/20 05:01:35;;;;;;;7.93;4.07;;;;;;;26.03;47.47;99624.25;4334906;33;33990;-86
2021/06/20 05:04:04;;;;;;;7.22;3.97;;;;;;;26.03;47.61;99629.59;4334878;33;33789;-85
2021/06/20 05:06:32;;;;;;;3.95;3.55;;;;;;;26.10;47.86;99640.72;4334478;33;34367;-85
2021/06/20 05:09:00;;;;;;;5.10;3.58;;;;;;;26.18;47.61;99638.41;4346824;33;34171;-86
2021/06/20 05:11:28;;;;;;;4.95;3.72;;;;;;;26.16;47.05;99641.19;4334675;33;33392;-86
2021/06/20 05:13:55;;;;;;;6.78;4.28;;;;;;;26.19;46.68;99651.66;4334786;33;33835;-86
2021/06/20 05:16:23;;;;;;;4.32;3.58;;;;;;;26.18;47.01;99655.28;4334778;33;34516;-86
2021/06/20 05:18:51;;;;;;;4.70;3.70;;;;;;;26.20;46.46;99658.69;4334542;33;34887;-86
2021/06/20 05:21:19;;;;;;;6.28;3.95;;;;;;;26.42;46.05;99658.13;4334423;33;33569;-86
2021/06/20 05:23:47;;;;;;;5.05;4.15;;;;;;;26.41;46.06;99666.22;4322478;33;34568;-86
2021/06/20 05:26:15;;;;;;;6.03;3.80;;;;;;;26.43;45.99;99669.66;4334746;33;34549;-87
2021/06/20 05:28:44;;;;;;;7.32;3.62;;;;;;;26.51;45.75;99677.97;4322342;33;33385;-88
2021/06/20 05:31:11;;;;;;;12.73;4.60;;;;;;;26.69;46.14;99679.41;4322384;33;34074;-89
2021/06/20 05:33:39;;;;;;;4.05;3.30;;;;;;;26.76;45.48;99683.41;4322723;33;33784;-89
2021/06/20 05:36:07;;;;;;;4.18;3.65;;;;;;;26.74;45.24;99691.47;4334353;33;35757;-89
2021/06/20 05:38:35;;;;;;;5.47;3.90;;;;;;;26.62;45.40;99692.31;4322136;33;34229;-89
2021/06/20 05:41:02;;;;;;;4.95;3.62;;;;;;;26.67;45.08;99687.50;4322161;33;33692;-89
2021/06/20 05:43:30;;;;;;;4.97;3.92;;;;;;;26.70;45.24;99679.28;4334366;33;33833;-90
2021/06/20 05:45:58;;;;;;;4.75;3.55;;;;;;;26.46;45.26;99691.59;4334304;33;34452;-89
2021/06/20 05:48:26;;;;;;;8.25;4.40;;;;;;;26.55;44.92;99691.03;4310038;33;33476;-89
2021/06/20 05:50:53;;;;;;;6.40;4.05;;;;;;;26.49;45.39;99694.09;4321928;33;34064;-89
2021/06/20 05:53:22;;;;;;;6.50;3.78;;;;;;;26.30;45.71;99706.94;4322264;33;33878;-89
2021/06/20 05:55:49;;;;;;;7.30;3.85;;;;;;;26.61;45.63;99703.06;4322422;33;34415;-90
2021/06/20 05:58:17;;;;;;;7.05;4.03;;;;;;;26.58;45.22;99700.59;4323533;33;34302;-89
2021/06/20 06:00:45;;;;;;;6.75;4.43;;;;;;;26.89;44.94;99710.09;4323714;33;33113;-89
2021/06/20 06:03:13;;;;;;;4.53;3.90;;;;;;;27.00;44.58;99702.22;4349205;33;33807;-89
2021/06/20 06:05:40;;;;;;;5.62;3.78;;;;;;;26.84;44.92;99708.59;4311761;33;34790;-89
2021/06/20 06:08:08;;;;;;;5.70;3.60;;;;;;;26.93;44.75;99712.47;4323745;33;33721;-89
2021/06/20 06:10:36;;;;;;;7.80;4.10;;;;;;;26.92;44.51;99710.75;4324167;33;34307;-89
2021/06/20 06:13:04;;;;;;;5.55;4.20;;;;;;;26.90;44.84;99707.31;4323650;33;34075;-89
2021/06/20 06:15:32;;;;;;;7.00;3.83;;;;;;;27.32;44.07;99699.00;4323767;33;35193;-88
2021/06/20 06:18:00;;;;;;;10.48;3.92;;;;;;;27.46;43.85;99706.94;4311582;33;32997;-89
2021/06/20 06:20:28;;;;;;;6.03;4.20;;;;;;;27.23;44.33;99707.66;4323649;33;33288;-88
2021/06/20 06:22:56;;;;;;;4.82;4.35;;;;;;;27.33;44.78;99707.88;4335597;33;33793;-89
2021/06/20 06:25:24;;;;;;;4.87;3.60;;;;;;;27.28;44.43;99696.66;4323783;33;34423;-88
2021/06/20 06:27:52;;;;;;;6.18;4.22;;;;;;;27.36;44.12;99695.16;4323713;33;34063;-89
2021/06/20 06:30:20;;;;;;;4.40;4.00;;;;;;;27.44;44.14;99692.84;4323366;33;33275;-88
2021/06/20 06:32:48;;;;;;;6.90;3.90;;;;;;;27.73;43.34;99692.56;4323357;33;34671;-88
2021/06/20 06:35:16;;;;;;;6.85;4.30;;;;;;;27.80;43.16;99688.47;4323468;33;35541;-89
2021/06/20 06:37:45;;;;;;;6.00;4.00;;;;;;;27.96;43.38;99683.72;4323554;33;34331;-88
2021/06/20 06:40:13;;;;;;;4.30;3.78;;;;;;;28.02;42.77;99684.19;4324017;33;33233;-88
2021/06/20 06:42:41;;;;;;;4.18;3.75;;;;;;;28.09;42.29;99690.78;4335581;33;34569;-87
2021/06/20 06:45:09;;;;;;;5.18;3.50;;;;;;;27.90;42.89;99682.38;4323424;33;35734;-88
2021/06/20 06:47:37;;;;;;;5.35;3.92;;;;;;;27.98;42.99;99676.47;4310675;33;33338;-88
2021/06/20 06:50:07;;;;;;;7.95;4.05;;;;;;;28.14;42.73;99679.75;4348655;33;33326;-89
2021/06/20 06:52:35;;;;;;;12.18;4.50;;;;;;;28.41;41.63;99682.19;4334345;33;33147;-88
2021/06/20 06:55:05;;;;;;;5.32;3.50;;;;;;;28.44;41.88;99671.22;4323670;33;34365;-89
2021/06/20 06:57:34;;;;;;;5.20;3.72;;;;;;;28.43;42.08;99666.88;4323562;33;34930;-89
2021/06/20 07:00:04;;;;;;;6.47;3.90;;;;;;;28.64;41.62;99671.47;4323602;33;34385;-88
2021/06/20 07:02:33;;;;;;;6.90;3.95;;;;;;;28.67;41.67;99671.22;4323495;33;33372;-88
2021/06/20 07:05:01;;;;;;;6.30;3.70;;;;;;;29.02;41.64;99671.22;4335506;33;35475;-88
2021/06/20 07:07:29;;;;;;;6.18;3.50;;;;;;;29.00;41.22;99664.25;4310625;33;34057;-89
2021/06/20 07:10:00;;;;;;;5.00;3.75;;;;;;;29.18;40.84;99660.13;4334929;33;33073;-88
2021/06/20 07:12:31;;;;;;;3.58;3.28;;;;;;;29.58;40.21;99663.19;4335530;33;33753;-89
2021/06/20 07:15:03;;;;;;;4.03;3.62;;;;;;;29.55;40.68;99669.66;4323133;33;33788;-89
2021/06/20 07:17:32;;;;;;;3.87;3.45;;;;;;;29.65;39.74;99659.91;4323371;33;34153;-88
2021/06/20 07:20:02;;;;;;;5.78;3.70;;;;;;;29.78;39.34;99655.31;4323394;33;33373;-89
2021/06/20 07:22:29;;;;;;;3.70;3.40;;;;;;;29.76;39.34;99645.66;4323325;33;34755;-89
2021/06/20 07:24:57;;;;;;;4.03;3.53;;;;;;;29.93;39.01;99651.34;4323420;33;34351;-89
2021/06/20 07:27:25;;;;;;;5.28;3.40;;;;;;;29.90;38.82;99645.41;4323536;33;34020;-89
2021/06/20 07:29:53;;;;;;;4.07;3.67;;;;;;;30.13;38.93;99639.84;4335531;33;34588;-88
2021/06/20 07:32:20;;;;;;;5.10;3.28;;;;;;;30.40;39.00;99651.97;4323267;33;34617;-89
2021/06/20 07:34:51;;;;;;;4.03;3.60;;;;;;;30.64;37.90;99644.53;4335228;33;34500;-87
2021/06/20 07:37:18;;;;;;;7.45;3.45;;;;;;;30.45;38.52;99641.69;4334918;33;34952;-87
2021/06/20 07:39:46;;;;;;;5.12;3.58;;;;;;;30.63;37.97;99641.00;4335069;33;33318;-86
2021/06/20 07:42:14;;;;;;;3.62;3.05;;;;;;;30.79;37.35;99632.47;4335122;33;33733;-87
2021/06/20 07:44:42;;;;;;;3.25;2.95;;;;;;;30.95;37.38;99637.41;4322873;33;35653;-87
2021/06/20 07:47:09;;;;;;;4.18;2.97;;;;;;;31.05;36.86;99622.19;4322435;33;34705;-88
2021/06/20 07:49:37;;;;;;;3.87;3.05;;;;;;;31.25;35.78;99622.16;4348345;33;33693;-88
2021/06/20 07:52:05;;;;;;;5.07;2.87;;;;;;;31.42;35.76;99626.91;4334347;33;33985;-87
2021/06/20 07:54:32;;;;;;;4.82;3.12;;;;;;;31.45;35.74;99621.25;4346295;33;34773;-88
2021/06/20 07:57:00;;;;;;;2.65;2.45;;;;;;;31.42;35.30;99616.16;4334399;33;34099;-86
2021/06/20 07:59:28;;;;;;;3.78;3.03;;;;;;;31.67;35.17;99614.81;4334502;33;33465;-87
2021/06/20 08:01:55;;;;;;;4.70;3.03;;;;;;;31.54;34.76;99608.00;4334430;33;34589;-89
2021/06/20 08:04:23;;;;;;;4.93;3.20;;;;;;;31.56;33.98;99608.69;4334225;33;35809;-89
2021/06/20 08:06:51;;;;;;;2.92;2.67;;;;;;;31.63;33.95;99601.78;4334188;33;34720;-89
2021/06/20 08:09:19;;;;;;;2.60;2.40;;;;;;;31.76;33.86;99608.59;4310095;33;32656;-87
2021/06/20 08:11:47;;;;;;;5.12;2.90;;;;;;;32.01;33.23;99609.94;4347433;33;34500;-88
2021/06/20 08:14:14;;;;;;;8.73;2.90;;;;;;;31.96;33.65;99604.09;4322345;33;35439;-89
2021/06/20 08:16:42;;;;;;;4.35;2.60;;;;;;;31.95;33.78;99610.50;4321958;33;34673;-89
2021/06/20 08:19:10;;;;;;;3.50;2.20;;;;;;;31.74;32.59;99610.59;4321633;33;33306;-89
2021/06/20 08:21:38;;;;;;;4.07;2.47;;;;;;;31.98;33.21;99613.78;4322537;33;34652;-88
2021/06/20 08:24:06;;;;;;;6.68;2.75;;;;;;;31.91;32.79;99607.22;4309933;33;33993;-89
2021/06/20 08:26:34;;;;;;;4.03;2.62;;;;;;;31.94;32.84;99606.09;4322374;33;33892;-88
2021/06/20 08:29:03;;;;;;;3.17;1.98;;;;;;;32.07;33.30;99599.47;4309804;33;33171;-89
2021/06/20 08:31:32;;;;;;;3.05;2.12;;;;;;;32.14;31.78;99597.06;4322183;33;33770;-89
2021/06/20 08:34:00;;;;;;;4.55;2.22;;;;;;;31.97;31.96;99601.28;4322144;33;35367;-89
2021/06/20 08:36:28;;;;;;;3.25;2.05;;;;;;;32.08;31.81;99603.03;4322426;33;35262;-89
2021/06/20 08:38:56;;;;;;;2.25;1.90;;;;;;;32.23;30.52;99607.00;4334000;33;33910;-89
2021/06/20 08:41:24;;;;;;;2.35;1.90;;;;;;;32.18;30.50;99603.88;4334410;33;33678;-89
2021/06/20 08:43:54;;;;;;;2.05;1.80;;;;;;;32.37;30.04;99603.88;4322307;33;33574;-89
2021/06/20 08:46:24;;;;;;;2.47;1.70;;;;;;;32.46;31.06;99605.69;4334382;33;33254;-89
2021/06/20 08:48:52;;;;;;;4.15;2.30;;;;;;;32.67;30.97;99610.94;4334342;33;33266;-89
2021/06/20 08:51:20;;;;;;;2.53;1.80;;;;;;;32.57;30.96;99605.56;4330912;33;96229;-89
2021/06/20 08:53:47;;;;;;;3.28;1.87;;;;;;;32.84;30.89;99601.25;4323127;33;34491;-89
2021/06/20 08:56:16;;;;;;;3.08;2.20;;;;;;;32.91;31.23;99600.53;4335376;33;34878;-89
2021/06/20 08:58:45;;;;;;;2.55;2.08;;;;;;;33.13;30.69;99604.75;4335094;33;34908;-90
2021/06/20 09:01:13;;;;;;;3.10;2.12;;;;;;;33.26;30.38;99603.41;4323051;33;34594;-89
2021/06/20 09:03:46;;;;;;;3.30;2.10;;;;;;;33.09;29.52;99596.09;4322620;33;33907;-88
2021/06/20 09:06:17;;;;;;;3.55;2.40;;;;;;;33.13;29.87;99591.28;4322704;33;34634;-88
2021/06/20 09:09:07;;;;;;;6.47;2.12;;;;;;;33.18;29.71;99586.28;4335119;33;34060;-88
2021/06/20 09:11:38;;;;;;;2.20;2.00;;;;;;;33.14;29.92;99577.66;4335086;33;33833;-88
2021/06/20 09:14:08;;;;;;;3.60;2.65;;;;;;;33.39;30.55;99571.59;4323176;33;34696;-89
2021/06/20 09:16:52;;;;;;;4.87;2.70;;;;;;;33.38;30.71;99577.09;4323214;33;34068;-87
2021/06/20 09:19:34;;;;;;;3.00;2.22;;;;;;;33.04;32.63;99576.88;4322633;33;32567;-88
2021/06/20 09:22:08;;;;;;;2.75;2.40;;;;;;;33.21;30.39;99572.53;4334512;33;33778;-88
2021/06/20 09:24:38;;;;;;;3.90;2.50;;;;;;;33.39;30.08;99565.34;4310767;33;34072;-88
2021/06/20 09:27:06;;;;;;;4.60;2.33;;;;;;;33.55;30.38;99575.47;4321925;33;33456;-88
2021/06/20 09:29:39;;;;;;;5.07;2.58;;;;;;;33.54;30.70;99573.81;4322272;33;33500;-88
2021/06/20 09:32:10;;;;;;;2.70;2.50;;;;;;;33.53;29.83;99572.94;4321492;33;34037;-88
2021/06/20 09:34:44;;;;;;;;;;;;;;;33.53;29.25;99572.94;4334699;33;34368;-89
2021/06/20 09:37:14;;;;;;;3.40;2.85;;;;;;;33.66;29.26;99576.13;4322079;33;33451;-88
2021/06/20 09:39:41;;;;;;;4.18;2.58;;;;;;;33.66;30.22;99573.41;4322096;33;34620;-88
2021/06/20 09:42:12;;;;;;;3.80;3.22;;;;;;;33.20;32.19;99563.59;4334514;33;33716;-88
2021/06/20 09:44:42;;;;;;;7.18;4.60;;;;;;;33.52;30.94;99556.91;4322010;33;34208;-88
2021/06/20 09:47:26;;;;;;;7.32;4.30;;;;;;;33.58;30.33;99564.41;4336106;33;35403;-88
2021/06/20 09:49:54;;;;;;;;;;;;;;;33.68;29.66;99563.34;4334575;33;33610;-88
2021/06/20 09:52:31;;;;;;;3.92;3.53;;;;;;;34.01;29.10;99573.47;4341589;33;33737;-87
2021/06/20 09:55:01;;;;;;;4.72;2.87;;;;;;;33.93;28.98;99573.38;4321949;33;33848;-88
2021/06/20 09:57:41;;;;;;;4.90;2.40;;;;;;;33.65;30.30;99569.03;4333936;33;34669;-88
2021/06/20 10:00:11;;;;;;;4.17;2.47;;;;;;;33.84;28.57;99560.81;4334072;33;33677;-88
2021/06/20 10:02:42;;;;;;;5.65;2.62;;;;;;;33.71;29.29;99563.03;4322782;33;33756;-89
2021/06/20 10:05:11;;;;;;;3.75;2.60;;;;;;;33.92;29.00;99557.34;4346346;33;34723;-89
2021/06/20 10:07:39;;;;;;;6.07;2.53;;;;;;;33.73;29.09;99555.66;4334673;33;34081;-90
2021/06/20 10:10:08;;;;;;;2.67;2.35;;;;;;;33.58;30.14;99562.56;4322092;33;33007;-89
2021/06/20 10:12:36;;;;;;;4.65;2.58;;;;;;;33.70;29.41;99566.75;4346130;33;34449;-89
2021/06/20 10:15:11;;;;;;;6.65;3.05;;;;;;;33.87;28.52;99557.81;4334394;33;34373;-89
2021/06/20 10:17:42;;;;;;;6.10;2.90;;;;;;;33.69;30.74;99562.34;4346231;33;35130;-89
2021/06/20 10:20:13;;;;;;;3.85;2.85;;;;;;;33.75;29.52;99561.75;4334019;33;34373;-88
2021/06/20 10:22:42;;;;;;;8.07;2.80;;;;;;;33.96;29.29;99554.19;4346339;33;35014;-89
2021/06/20 10:25:22;;;;;;;2.92;2.58;;;;;;;34.01;29.29;99557.28;4321800;33;34403;-89
2021/06/20 10:28:13;;;;;;;5.90;2.80;;;;;;;34.07;29.12;99560.41;4333684;33;34636;-87
2021/06/20 10:30:42;;;;;;;4.75;3.00;;;;;;;34.30;28.83;99551.66;4321754;33;34837;-88
2021/06/20 10:33:16;;;;;;;2.92;2.70;;;;;;;34.05;28.70;99547.91;4321617;33;32888;-88
2021/06/20 10:35:45;;;;;;;4.43;2.92;;;;;;;34.28;28.37;99550.13;4333861;33;34212;-88
2021/06/20 10:38:32;;;;;;;3.10;2.80;;;;;;;34.39;28.00;99550.72;4333628;33;34182;-88
2021/06/20 10:41:00;;;;;;;5.50;2.80;;;;;;;34.28;28.30;99544.72;4333724;33;33562;-88
2021/06/20 10:43:27;;;;;;;3.50;2.45;;;;;;;34.28;28.29;99547.41;4347400;33;32775;-89
2021/06/20 10:45:55;;;;;;;4.15;3.00;;;;;;;34.41;28.32;99548.69;4323441;33;33834;-88
2021/06/20 10:48:25;;;;;;;3.37;2.65;;;;;;;34.33;28.14;99537.00;4335685;33;34069;-88
2021/06/20 10:50:55;;;;;;;5.00;2.85;;;;;;;34.48;29.40;99532.72;4335439;33;33674;-89
2021/06/20 10:53:24;;;;;;;3.42;2.80;;;;;;;34.57;29.15;99532.62;4323594;33;33340;-89
2021/06/20 10:55:57;;;;;;;4.40;2.97;;;;;;;34.61;29.49;99527.78;4323396;33;34842;-88
2021/06/20 10:58:27;;;;;;;6.55;2.90;;;;;;;34.71;29.64;99528.50;4336408;33;35253;-90
2021/06/20 11:01:09;;;;;;;5.82;2.67;;;;;;;34.68;28.17;99526.97;4324711;33;33155;-90
2021/06/20 11:03:39;;;;;;;6.12;3.20;;;;;;;34.87;28.25;99525.91;4336229;33;34627;-90
2021/06/20 11:06:11;;;;;;;3.40;3.10;;;;;;;34.88;27.74;99535.69;4348091;33;35337;-90
2021/06/20 11:08:54;;;;;;;;;;;;;;;35.12;27.27;99522.31;4349532;33;34111;-89
2021/06/20 11:11:24;;;;;;;6.35;2.87;;;;;;;35.03;28.59;99512.50;4336276;33;33482;-88
2021/06/20 11:13:55;;;;;;;3.78;2.70;;;;;;;35.11;27.97;99520.63;4311814;33;33468;-89
2021/06/20 11:16:26;;;;;;;4.67;2.73;;;;;;;35.30;27.41;99519.53;4323775;33;33907;-89
2021/06/20 11:19:17;;;;;;;2.92;2.70;;;;;;;35.42;27.31;99517.38;4335861;33;33586;-88
2021/06/20 11:21:56;;;;;;;3.43;2.83;;;;;;;35.32;27.98;99504.84;4336083;33;33758;-89
2021/06/20 11:24:31;;;;;;;7.45;3.12;;;;;;;35.42;26.87;99501.16;4347966;33;33721;-91
2021/06/20 11:27:00;;;;;;;4.28;3.00;;;;;;;34.93;29.23;99506.34;4336459;33;35233;-89
2021/06/20 11:29:38;;;;;;;3.28;2.97;;;;;;;34.82;28.77;99498.53;4311515;33;33650;-89
2021/06/20 11:32:07;;;;;;;6.15;2.87;;;;;;;34.94;27.04;99497.22;4323861;33;33326;-89
2021/06/20 11:34:35;;;;;;;3.15;2.70;;;;;;;34.84;27.26;99493.78;4323526;33;33225;-89
2021/06/20 11:37:03;;;;;;;3.20;2.90;;;;;;;34.96;28.35;99489.81;4335791;33;34496;-88
2021/06/20 11:39:34;;;;;;;6.78;3.20;;;;;;;35.06;27.42;99489.72;4335811;33;33317;-90
2021/06/20 11:42:03;;;;;;;3.40;3.10;;;;;;;35.12;28.29;99492.59;4336015;33;32446;-89
2021/06/20 11:44:30;;;;;;;3.67;3.12;;;;;;;35.20;27.53;99479.12;4335454;33;34498;-89
2021/06/20 11:46:58;;;;;;;3.22;2.97;;;;;;;35.10;27.83;99470.28;4336270;33;33730;-88